createdAt,value
2022-08-04T00:02:01.146Z,21.29
2022-08-04T00:04:08.465Z,21.28
2022-08-04T00:06:48.918Z,21.24
2022-08-04T00:08:56.390Z,21.21
2022-08-04T00:11:00.191Z,21.19
2022-08-04T00:13:04.475Z,21.18
2022-08-04T00:15:06.741Z,21.18
2022-08-04T00:17:08.347Z,21.16
2022-08-04T00:19:17.730Z,21.13
2022-08-04T00:21:22.515Z,21.08
2022-08-04T00:23:26.569Z,21.01
2022-08-04T00:25:28.842Z,20.99
2022-08-04T00:27:31.296Z,20.97
2022-08-04T00:29:33.633Z,20.95
2022-08-04T00:31:56.070Z,20.92
2022-08-04T00:33:58.293Z,20.91
2022-08-04T00:36:00.761Z,20.90
2022-08-04T00:38:03.350Z,20.90
2022-08-04T00:40:31.159Z,20.89
2022-08-04T00:42:59.281Z,20.83
2022-08-04T00:46:00.558Z,20.77
2022-08-04T00:48:23.304Z,20.71
2022-08-04T00:51:19.027Z,20.65
2022-08-04T00:54:00.067Z,20.63
2022-08-04T00:56:48.024Z,20.62
2022-08-04T00:59:02.703Z,20.56
2022-08-04T01:01:06.784Z,20.58
2022-08-04T01:03:24.115Z,20.60
2022-08-04T01:05:39.502Z,20.57
2022-08-04T01:07:54.656Z,20.55
2022-08-04T01:10:03.562Z,20.53
2022-08-04T01:12:42.654Z,20.48
2022-08-04T01:15:02.907Z,20.46
2022-08-04T01:17:21.300Z,20.42
2022-08-04T01:20:09.396Z,20.40
2022-08-04T01:22:29.349Z,20.34
2022-08-04T01:24:47.303Z,20.33
2022-08-04T01:27:03.906Z,20.34
2022-08-04T01:29:15.830Z,20.35
2022-08-04T01:31:29.794Z,20.36
2022-08-04T01:34:03.142Z,20.36
2022-08-04T01:36:05.680Z,20.35
2022-08-04T01:38:36.678Z,20.36
2022-08-04T01:40:39.342Z,20.35
2022-08-04T01:42:42.353Z,20.34
2022-08-04T01:44:48.017Z,20.33
2022-08-04T01:46:51.523Z,20.33
2022-08-04T01:48:54.216Z,20.29
2022-08-04T01:50:59.809Z,20.26
2022-08-04T01:53:02.825Z,20.24
2022-08-04T01:55:06.709Z,20.23
2022-08-04T01:57:36.882Z,20.23
2022-08-04T01:59:34.238Z,20.17
2022-08-04T02:01:38.839Z,20.19
2022-08-04T02:04:20.972Z,20.18
2022-08-04T02:06:25.610Z,20.16
2022-08-04T02:08:42.344Z,20.14
2022-08-04T02:11:15.088Z,20.14
2022-08-04T02:13:28.795Z,20.13
2022-08-04T02:16:05.671Z,20.13
2022-08-04T02:18:22.546Z,20.06
2022-08-04T02:20:33.882Z,20.03
2022-08-04T02:22:53.001Z,20.04
2022-08-04T02:25:10.384Z,20.01
2022-08-04T02:27:14.308Z,19.99
2022-08-04T02:29:37.001Z,19.98
2022-08-04T02:31:47.515Z,19.94
2022-08-04T02:34:01.939Z,19.96
2022-08-04T02:36:05.424Z,19.98
2022-08-04T02:38:25.766Z,19.96
2022-08-04T02:40:30.183Z,19.92
2022-08-04T02:42:35.438Z,19.89
2022-08-04T02:44:39.045Z,19.87
2022-08-04T02:46:42.019Z,19.84
2022-08-04T02:48:46.551Z,19.84
2022-08-04T02:50:50.234Z,19.84
2022-08-04T02:52:56.786Z,19.83
2022-08-04T02:55:01.546Z,19.82
2022-08-04T02:57:08.539Z,19.79
2022-08-04T02:59:11.989Z,19.79
2022-08-04T03:01:13.539Z,19.79
2022-08-04T03:03:24.102Z,19.79
2022-08-04T03:05:51.909Z,19.77
2022-08-04T03:08:27.483Z,19.77
2022-08-04T03:10:58.508Z,19.77
2022-08-04T03:13:46.811Z,19.77
2022-08-04T03:16:30.305Z,19.77
2022-08-04T03:18:47.835Z,19.76
2022-08-04T03:21:13.820Z,19.75
2022-08-04T03:23:52.540Z,19.76
2022-08-04T03:26:27.109Z,19.70
2022-08-04T03:28:47.245Z,19.68
2022-08-04T03:31:26.126Z,19.67
2022-08-04T03:33:55.061Z,19.68
2022-08-04T03:36:34.421Z,19.68
2022-08-04T03:38:55.720Z,19.69
2022-08-04T03:41:14.011Z,19.69
2022-08-04T03:43:58.947Z,19.69
2022-08-04T03:46:26.027Z,19.69
2022-08-04T03:48:42.631Z,19.69
2022-08-04T03:51:34.849Z,19.66
2022-08-04T03:54:14.495Z,19.63
2022-08-04T03:56:26.611Z,19.62
2022-08-04T03:58:45.955Z,19.63
2022-08-04T04:00:56.225Z,19.64
2022-08-04T04:03:35.048Z,19.66
2022-08-04T04:06:24.408Z,19.67
2022-08-04T04:08:38.169Z,19.66
2022-08-04T04:11:02.149Z,19.67
2022-08-04T04:13:33.907Z,19.69
2022-08-04T04:16:04.553Z,19.68
2022-08-04T04:18:26.306Z,19.70
2022-08-04T04:21:10.248Z,19.74
2022-08-04T04:23:26.609Z,19.75
2022-08-04T04:25:36.345Z,19.81
2022-08-04T04:27:47.457Z,19.83
2022-08-04T04:30:06.578Z,19.86
2022-08-04T04:32:26.975Z,19.87
2022-08-04T04:34:46.059Z,19.92
2022-08-04T04:37:03.284Z,19.95
2022-08-04T04:39:38.445Z,19.97
2022-08-04T04:41:58.731Z,20.01
2022-08-04T04:44:30.684Z,20.06
2022-08-04T04:46:59.343Z,20.10
2022-08-04T04:49:44.962Z,20.16
2022-08-04T04:51:55.709Z,20.18
2022-08-04T04:54:11.079Z,20.20
2022-08-04T04:56:24.426Z,20.23
2022-08-04T04:58:27.678Z,20.30
2022-08-04T05:01:10.429Z,20.44
2022-08-04T05:03:30.363Z,20.55
2022-08-04T05:05:53.615Z,20.64
2022-08-04T05:08:44.929Z,20.67
2022-08-04T05:10:39.654Z,20.69
2022-08-04T05:14:35.068Z,20.77
2022-08-04T05:15:27.699Z,20.79
2022-08-04T05:17:45.802Z,20.80
2022-08-04T05:20:08.213Z,20.81
2022-08-04T05:22:32.773Z,20.80
2022-08-04T05:24:39.310Z,20.81
2022-08-04T05:26:55.065Z,20.82
2022-08-04T05:28:59.609Z,20.81
2022-08-04T05:31:20.434Z,20.83
2022-08-04T05:33:34.517Z,20.83
2022-08-04T05:36:21.774Z,20.84
2022-08-04T05:38:36.216Z,20.86
2022-08-04T05:40:39.664Z,20.88
2022-08-04T05:42:41.620Z,20.93
2022-08-04T05:44:47.583Z,20.93
2022-08-04T05:46:56.068Z,20.97
2022-08-04T05:48:57.760Z,21.00
2022-08-04T05:51:01.614Z,21.05
2022-08-04T05:53:05.711Z,21.12
2022-08-04T05:55:08.138Z,21.21
2022-08-04T05:57:10.929Z,21.27
2022-08-04T05:59:12.810Z,21.34
2022-08-04T06:01:16.888Z,21.36
2022-08-04T06:03:20.824Z,21.40
2022-08-04T06:05:23.865Z,21.44
2022-08-04T06:07:26.686Z,21.44
2022-08-04T06:09:28.432Z,21.54
2022-08-04T06:11:30.456Z,21.59
2022-08-04T06:13:49.571Z,21.67
2022-08-04T06:15:56.157Z,21.76
2022-08-04T06:18:42.215Z,21.82
2022-08-04T06:20:32.620Z,21.97
2022-08-04T06:22:41.566Z,22.08
2022-08-04T06:24:48.148Z,22.21
2022-08-04T06:26:51.600Z,22.34
2022-08-04T06:28:54.914Z,22.43
2022-08-04T06:32:28.311Z,22.54
2022-08-04T06:33:33.046Z,22.67
2022-08-04T06:35:55.903Z,22.74
2022-08-04T06:38:01.340Z,22.85
2022-08-04T06:40:29.654Z,22.95
2022-08-04T06:42:29.278Z,23.08
2022-08-04T06:44:31.758Z,23.13
2022-08-04T06:46:38.443Z,23.27
2022-08-04T06:48:41.897Z,23.36
2022-08-04T06:51:28.110Z,23.43
2022-08-04T06:53:09.325Z,23.50
2022-08-04T06:55:11.521Z,23.55
2022-08-04T06:57:20.714Z,23.60
2022-08-04T06:59:23.042Z,23.67
2022-08-04T07:01:27.906Z,23.71
2022-08-04T07:03:30.707Z,23.80
2022-08-04T07:05:32.757Z,23.88
2022-08-04T07:07:36.841Z,23.98
2022-08-04T07:09:53.295Z,24.08
2022-08-04T07:11:55.448Z,24.21
2022-08-04T07:13:57.648Z,24.32
2022-08-04T07:16:00.815Z,24.43
2022-08-04T07:18:04.679Z,24.54
2022-08-04T07:20:07.323Z,24.66
2022-08-04T07:22:18.838Z,24.75
2022-08-04T07:24:35.080Z,24.90
2022-08-04T07:26:36.579Z,24.99
2022-08-04T07:28:39.928Z,25.10
2022-08-04T07:30:44.928Z,25.21
2022-08-04T07:32:47.073Z,25.35
2022-08-04T07:34:52.042Z,25.49
2022-08-04T07:36:56.102Z,25.61
2022-08-04T07:38:58.030Z,25.71
2022-08-04T07:41:01.376Z,25.80
2022-08-04T07:43:03.380Z,25.88
2022-08-04T07:45:05.522Z,25.97
2022-08-04T07:47:12.630Z,26.06
2022-08-04T07:49:55.988Z,26.13
2022-08-04T07:51:37.472Z,26.23
2022-08-04T07:53:55.559Z,26.36
2022-08-04T07:55:58.445Z,26.52
2022-08-04T07:58:00.649Z,26.64
2022-08-04T08:00:04.894Z,26.79
2022-08-04T08:02:06.479Z,26.91
2022-08-04T08:04:10.133Z,27.01
2022-08-04T08:06:30.984Z,27.11
2022-08-04T08:08:33.384Z,27.19
2022-08-04T08:10:35.766Z,27.25
2022-08-04T08:12:51.526Z,27.34
2022-08-04T08:14:54.343Z,27.45
2022-08-04T08:16:56.055Z,27.59
2022-08-04T08:18:57.636Z,27.68
2022-08-04T08:20:59.261Z,27.77
2022-08-04T08:23:01.927Z,27.86
2022-08-04T08:25:06.127Z,27.94
2022-08-04T08:27:07.734Z,28.04
2022-08-04T08:29:09.723Z,28.15
2022-08-04T08:31:11.354Z,28.22
2022-08-04T08:33:15.791Z,28.26
2022-08-04T08:35:18.408Z,28.30
2022-08-04T08:37:45.679Z,28.36
2022-08-04T08:39:58.138Z,28.44
2022-08-04T08:42:18.197Z,28.54
2022-08-04T08:44:38.156Z,28.62
2022-08-04T08:47:02.638Z,28.71
2022-08-04T08:50:01.091Z,28.81
2022-08-04T08:52:04.151Z,28.88
2022-08-04T08:54:16.448Z,28.92
2022-08-04T08:56:36.936Z,29.04
2022-08-04T08:58:50.594Z,29.13
2022-08-04T09:01:04.299Z,29.21
2022-08-04T09:03:38.379Z,29.30
2022-08-04T09:05:46.219Z,29.35
2022-08-04T09:08:38.307Z,29.44
2022-08-04T09:10:50.764Z,29.48
2022-08-04T09:13:06.194Z,29.49
2022-08-04T09:15:15.792Z,29.56
2022-08-04T09:17:30.028Z,29.65
2022-08-04T09:20:04.647Z,29.75
2022-08-04T09:22:16.237Z,29.81
2022-08-04T09:24:58.660Z,29.94
2022-08-04T09:27:15.428Z,30.05
2022-08-04T09:29:23.126Z,30.13
2022-08-04T09:31:51.669Z,30.23
2022-08-04T09:34:13.811Z,30.37
2022-08-04T09:36:26.283Z,30.48
2022-08-04T09:38:52.436Z,30.57
2022-08-04T09:41:48.442Z,30.68
2022-08-04T09:44:48.767Z,30.77
2022-08-04T09:47:05.867Z,30.82
2022-08-04T09:49:23.377Z,30.89
2022-08-04T09:51:57.427Z,30.97
2022-08-04T09:54:30.431Z,31.16
2022-08-04T09:56:42.932Z,31.27
2022-08-04T09:59:19.383Z,31.35
2022-08-04T10:01:24.339Z,31.39
2022-08-04T10:03:27.714Z,31.46
2022-08-04T10:06:00.003Z,31.56
2022-08-04T10:08:18.411Z,31.69
2022-08-04T10:10:27.465Z,31.69
2022-08-04T10:13:12.887Z,31.71
2022-08-04T10:15:19.770Z,31.74
2022-08-04T10:17:52.268Z,31.81
2022-08-04T10:20:07.412Z,31.92
2022-08-04T10:22:49.633Z,32.01
2022-08-04T10:25:39.974Z,31.98
2022-08-04T10:27:47.307Z,31.97
2022-08-04T10:29:49.098Z,32.01
2022-08-04T10:32:12.096Z,32.13
2022-08-04T10:34:20.163Z,32.37
2022-08-04T10:36:23.985Z,32.54
2022-08-04T10:38:40.580Z,32.79
2022-08-04T10:41:02.186Z,33.01
2022-08-04T10:43:20.878Z,33.18
2022-08-04T10:45:32.121Z,33.33
2022-08-04T10:47:41.950Z,33.51
2022-08-04T10:49:46.382Z,33.71
2022-08-04T10:51:58.572Z,33.87
2022-08-04T10:54:06.206Z,34.05
2022-08-04T10:56:30.079Z,34.23
2022-08-04T10:58:48.106Z,34.42
2022-08-04T11:00:57.067Z,34.74
2022-08-04T11:03:05.789Z,34.98
2022-08-04T11:05:30.397Z,35.23
2022-08-04T11:07:33.788Z,35.30
2022-08-04T11:09:35.880Z,35.46
2022-08-04T11:11:57.185Z,35.64
2022-08-04T11:14:16.775Z,35.92
2022-08-04T11:16:27.420Z,35.93
2022-08-04T11:18:36.267Z,35.83
2022-08-04T11:20:37.929Z,35.87
2022-08-04T11:22:48.365Z,35.95
2022-08-04T11:25:14.761Z,35.91
2022-08-04T11:27:25.800Z,35.91
2022-08-04T11:29:48.816Z,35.84
2022-08-04T11:31:52.015Z,35.77
2022-08-04T11:34:13.315Z,35.44
2022-08-04T11:36:30.556Z,35.25
2022-08-04T11:38:45.331Z,35.37
2022-08-04T11:41:07.989Z,35.42
2022-08-04T11:43:58.653Z,35.44
2022-08-04T11:46:00.810Z,35.60
2022-08-04T11:48:10.138Z,35.60
2022-08-04T11:50:20.361Z,35.70
2022-08-04T11:52:23.080Z,35.71
2022-08-04T11:54:24.767Z,35.79
2022-08-04T11:56:37.207Z,35.61
2022-08-04T11:58:40.002Z,35.40
2022-08-04T12:01:21.888Z,35.41
2022-08-04T12:03:42.266Z,35.31
2022-08-04T12:06:28.882Z,35.07
2022-08-04T12:08:51.809Z,34.89
2022-08-04T12:11:13.551Z,34.80
2022-08-04T12:13:28.104Z,34.92
2022-08-04T12:15:36.188Z,35.03
2022-08-04T12:17:54.367Z,34.95
2022-08-04T12:20:05.261Z,35.03
2022-08-04T12:22:31.526Z,35.01
2022-08-04T12:24:43.878Z,34.99
2022-08-04T12:26:58.346Z,34.88
2022-08-04T12:29:10.479Z,34.87
2022-08-04T12:31:35.581Z,34.82
2022-08-04T12:34:04.104Z,34.78
2022-08-04T12:36:22.149Z,34.61
2022-08-04T12:38:27.763Z,34.54
2022-08-04T12:40:42.036Z,34.48
2022-08-04T12:43:11.639Z,34.42
2022-08-04T12:45:15.100Z,34.39
2022-08-04T12:47:27.434Z,34.50
2022-08-04T12:49:34.387Z,34.46
2022-08-04T12:52:07.690Z,34.35
2022-08-04T12:54:06.905Z,34.31
2022-08-04T12:56:17.161Z,34.34
2022-08-04T12:58:41.834Z,34.29
2022-08-04T13:00:53.628Z,34.28
2022-08-04T13:03:00.508Z,34.24
2022-08-04T13:05:05.800Z,34.09
2022-08-04T13:07:12.782Z,33.97
2022-08-04T13:09:20.805Z,33.99
2022-08-04T13:11:23.678Z,33.99
2022-08-04T13:13:29.173Z,34.00
2022-08-04T13:15:33.515Z,33.96
2022-08-04T13:18:00.144Z,34.07
2022-08-04T13:20:02.369Z,34.06
2022-08-04T13:22:05.547Z,34.03
2022-08-04T13:24:19.861Z,34.01
2022-08-04T13:26:43.882Z,33.98
2022-08-04T13:28:52.905Z,33.95
2022-08-04T13:31:00.753Z,33.96
2022-08-04T13:33:03.450Z,33.90
2022-08-04T13:35:09.338Z,33.80
2022-08-04T13:37:12.137Z,33.70
2022-08-04T13:39:24.646Z,33.68
2022-08-04T13:41:31.107Z,33.75
2022-08-04T13:44:16.319Z,33.76
2022-08-04T13:46:06.146Z,33.73
2022-08-04T13:48:15.046Z,33.51
2022-08-04T13:50:33.378Z,33.13
2022-08-04T13:52:34.938Z,32.78
2022-08-04T13:54:42.708Z,32.67
2022-08-04T13:56:53.486Z,32.45
2022-08-04T13:58:57.327Z,32.17
2022-08-04T14:01:07.691Z,31.89
2022-08-04T14:03:18.984Z,31.76
2022-08-04T14:05:31.381Z,31.61
2022-08-04T14:07:47.796Z,31.48
2022-08-04T14:10:03.010Z,31.33
2022-08-04T14:12:38.563Z,31.15
2022-08-04T14:14:33.625Z,31.01
2022-08-04T14:16:35.097Z,30.94
2022-08-04T14:18:36.613Z,30.84
2022-08-04T14:20:38.079Z,30.57
2022-08-04T14:22:41.891Z,29.39
2022-08-04T14:24:43.411Z,27.86
2022-08-04T14:26:44.908Z,26.45
2022-08-04T14:29:09.628Z,25.61
2022-08-04T14:31:11.646Z,25.01
2022-08-04T14:34:02.424Z,24.17
2022-08-04T14:35:50.479Z,23.34
2022-08-04T14:37:56.793Z,22.92
2022-08-04T14:40:18.681Z,22.63
2022-08-04T14:42:44.072Z,22.59
2022-08-04T14:45:00.940Z,23.08
2022-08-04T14:47:02.472Z,23.58
2022-08-04T14:49:12.889Z,23.73
2022-08-04T14:51:15.147Z,23.88
2022-08-04T14:53:19.181Z,23.86
2022-08-04T14:55:23.203Z,23.86
2022-08-04T14:57:24.779Z,24.14
2022-08-04T14:59:27.006Z,24.38
2022-08-04T15:01:29.287Z,24.64
2022-08-04T15:03:31.841Z,24.83
2022-08-04T15:06:02.227Z,24.94
2022-08-04T15:07:55.225Z,24.88
2022-08-04T15:09:56.978Z,24.81
2022-08-04T15:11:58.743Z,24.69
2022-08-04T15:14:00.744Z,24.72
2022-08-04T15:16:07.518Z,24.63
2022-08-04T15:18:11.094Z,24.64
2022-08-04T15:20:13.289Z,24.74
2022-08-04T15:22:17.361Z,24.85
2022-08-04T15:24:19.405Z,24.81
2022-08-04T15:26:30.701Z,24.81
2022-08-04T15:28:35.743Z,24.85
2022-08-04T15:30:38.271Z,24.90
2022-08-04T15:32:44.186Z,24.94
2022-08-04T15:34:50.817Z,24.98
2022-08-04T15:37:03.669Z,25.00
2022-08-04T15:39:58.924Z,24.97
2022-08-04T15:42:21.754Z,25.03
2022-08-04T15:44:38.446Z,25.03
2022-08-04T15:46:44.177Z,25.11
2022-08-04T15:48:46.280Z,25.14
2022-08-04T15:50:59.805Z,25.17
2022-08-04T15:53:10.339Z,25.29
2022-08-04T15:55:37.306Z,25.19
2022-08-04T15:58:02.245Z,25.04
2022-08-04T16:00:07.713Z,25.12
2022-08-04T16:02:38.167Z,25.13
2022-08-04T16:04:39.765Z,25.04
2022-08-04T16:06:43.602Z,25.06
2022-08-04T16:08:57.201Z,25.13
2022-08-04T16:10:59.841Z,25.16
2022-08-04T16:13:07.390Z,25.19
2022-08-04T16:15:39.894Z,25.23
2022-08-04T16:17:41.458Z,25.16
2022-08-04T16:20:01.736Z,25.16
2022-08-04T16:22:04.226Z,25.04
2022-08-04T16:24:18.443Z,24.94
2022-08-04T16:26:38.262Z,24.93
2022-08-04T16:28:47.138Z,24.91
2022-08-04T16:30:48.675Z,24.83
2022-08-04T16:32:52.274Z,24.78
2022-08-04T16:35:03.681Z,24.50
2022-08-04T16:37:07.630Z,24.43
2022-08-04T16:39:19.181Z,24.46
2022-08-04T16:41:41.436Z,24.38
2022-08-04T16:43:43.041Z,24.05
2022-08-04T16:45:47.262Z,24.04
2022-08-04T16:47:49.004Z,24.14
2022-08-04T16:50:02.052Z,24.18
2022-08-04T16:52:10.597Z,24.23
2022-08-04T16:54:15.376Z,24.24
2022-08-04T16:56:19.709Z,24.25
2022-08-04T16:58:30.250Z,24.18
2022-08-04T17:00:36.535Z,24.07
2022-08-04T17:02:38.612Z,23.99
2022-08-04T17:04:40.186Z,23.97
2022-08-04T17:06:43.932Z,23.92
2022-08-04T17:08:46.650Z,23.82
2022-08-04T17:10:50.772Z,23.77
2022-08-04T17:13:03.718Z,23.78
2022-08-04T17:15:23.818Z,23.87
2022-08-04T17:17:25.302Z,23.91
2022-08-04T17:19:53.336Z,23.95
2022-08-04T17:22:06.114Z,23.88
2022-08-04T17:24:14.988Z,23.67
2022-08-04T17:26:23.383Z,23.69
2022-08-04T17:28:47.324Z,23.74
2022-08-04T17:30:51.515Z,23.74
2022-08-04T17:32:53.298Z,23.67
2022-08-04T17:34:58.769Z,23.67
2022-08-04T17:37:45.671Z,23.66
2022-08-04T17:39:30.952Z,23.43
2022-08-04T17:41:40.235Z,23.53
2022-08-04T17:44:06.443Z,23.63
2022-08-04T17:46:32.825Z,23.45
2022-08-04T17:48:41.118Z,23.38
2022-08-04T17:50:43.839Z,23.30
2022-08-04T17:52:58.756Z,23.35
2022-08-04T17:55:02.697Z,23.36
2022-08-04T17:57:21.006Z,23.36
2022-08-04T17:59:49.664Z,23.45
2022-08-04T18:01:59.863Z,23.57
2022-08-04T18:05:05.165Z,23.56
2022-08-04T18:08:35.124Z,23.53
2022-08-04T18:10:02.100Z,23.57
2022-08-04T18:12:02.332Z,23.68
2022-08-04T18:14:03.881Z,23.71
2022-08-04T18:16:14.305Z,23.70
2022-08-04T18:18:23.983Z,23.68
2022-08-04T18:20:27.749Z,23.65
2022-08-04T18:22:29.801Z,23.65
2022-08-04T18:24:55.506Z,23.66
2022-08-04T18:26:55.638Z,23.70
2022-08-04T18:28:58.904Z,23.67
2022-08-04T18:31:01.048Z,23.64
2022-08-04T18:33:16.771Z,23.62
2022-08-04T18:35:24.941Z,23.43
2022-08-04T18:38:05.335Z,23.25
2022-08-04T18:40:31.180Z,23.08
2022-08-04T18:42:31.681Z,22.95
2022-08-04T18:44:52.912Z,22.88
2022-08-04T18:46:56.101Z,22.80
2022-08-04T18:48:57.578Z,22.76
2022-08-04T18:51:10.954Z,22.72
2022-08-04T18:53:20.515Z,22.70
2022-08-04T18:55:56.065Z,22.74
2022-08-04T18:58:00.144Z,22.68
2022-08-04T19:00:04.722Z,22.62
2022-08-04T19:02:12.344Z,22.60
2022-08-04T19:04:32.896Z,22.40
2022-08-04T19:06:41.245Z,22.27
2022-08-04T19:08:44.977Z,22.19
2022-08-04T19:10:46.944Z,22.07
2022-08-04T19:12:55.794Z,21.95
2022-08-04T19:15:08.614Z,21.79
2022-08-04T19:17:52.468Z,21.73
2022-08-04T19:19:47.582Z,21.75
2022-08-04T19:22:01.498Z,21.68
2022-08-04T19:24:23.513Z,21.47
2022-08-04T19:26:28.189Z,21.39
2022-08-04T19:28:34.411Z,21.43
2022-08-04T19:30:36.755Z,21.47
2022-08-04T19:32:38.355Z,21.49
2022-08-04T19:34:41.703Z,21.43
2022-08-04T19:36:47.521Z,21.42
2022-08-04T19:38:51.319Z,21.48
2022-08-04T19:40:54.452Z,21.44
2022-08-04T19:43:07.443Z,21.36
2022-08-04T19:45:16.123Z,21.26
2022-08-04T19:48:16.234Z,21.25
2022-08-04T19:50:04.352Z,21.27
2022-08-04T19:52:00.938Z,21.33
2022-08-04T19:54:17.098Z,21.28
2022-08-04T19:56:25.617Z,21.25
2022-08-04T19:58:27.395Z,21.24
2022-08-04T20:00:33.921Z,21.32
2022-08-04T20:02:36.082Z,21.30
2022-08-04T20:04:37.586Z,21.15
2022-08-04T20:06:39.807Z,21.15
2022-08-04T20:08:48.499Z,21.16
2022-08-04T20:10:51.909Z,21.05
2022-08-04T20:12:55.920Z,21.05
2022-08-04T20:14:57.683Z,20.99
2022-08-04T20:17:02.650Z,20.98
2022-08-04T20:19:06.220Z,21.04
2022-08-04T20:21:11.412Z,21.06
2022-08-04T20:23:47.706Z,21.01
2022-08-04T20:25:43.960Z,20.82
2022-08-04T20:27:51.735Z,20.75
2022-08-04T20:30:05.217Z,20.65
2022-08-04T20:32:22.813Z,20.64
2022-08-04T20:34:24.321Z,20.51
2022-08-04T20:36:26.486Z,20.42
2022-08-04T20:38:33.525Z,20.19
2022-08-04T20:40:36.642Z,20.20
2022-08-04T20:42:38.661Z,20.26
2022-08-04T20:44:46.310Z,20.26
2022-08-04T20:46:48.539Z,20.18
2022-08-04T20:48:50.674Z,20.17
2022-08-04T20:50:52.221Z,20.20
2022-08-04T20:52:53.823Z,20.21
2022-08-04T20:54:56.052Z,20.13
2022-08-04T20:56:58.440Z,19.97
2022-08-04T20:59:01.649Z,19.84
2022-08-04T21:01:09.576Z,19.83
2022-08-04T21:03:12.556Z,19.76
2022-08-04T21:05:14.161Z,19.61
2022-08-04T21:07:20.374Z,19.50
2022-08-04T21:09:37.507Z,19.50
2022-08-04T21:11:44.621Z,19.50
2022-08-04T21:13:52.197Z,19.50
2022-08-04T21:15:59.154Z,19.51
2022-08-04T21:18:04.214Z,19.59
2022-08-04T21:20:06.299Z,19.53
2022-08-04T21:22:10.513Z,19.48
2022-08-04T21:24:13.496Z,19.48
2022-08-04T21:26:25.921Z,19.49
2022-08-04T21:28:27.847Z,19.51
2022-08-04T21:30:29.332Z,19.49
2022-08-04T21:32:30.851Z,19.50
2022-08-04T21:34:38.986Z,19.51
2022-08-04T21:36:44.805Z,19.54
2022-08-04T21:38:51.255Z,19.55
2022-08-04T21:41:01.594Z,19.60
2022-08-04T21:43:03.624Z,19.62
2022-08-04T21:45:05.910Z,19.62
2022-08-04T21:47:22.440Z,19.64
2022-08-04T21:49:25.383Z,19.61
2022-08-04T21:52:00.562Z,19.57
2022-08-04T21:53:55.132Z,19.55
2022-08-04T21:56:05.998Z,19.57
2022-08-04T21:58:08.872Z,19.58
2022-08-04T22:00:18.458Z,19.60
2022-08-04T22:02:21.375Z,19.61
2022-08-04T22:04:22.961Z,19.57
2022-08-04T22:06:28.392Z,19.55
2022-08-04T22:08:30.638Z,19.52
2022-08-04T22:10:33.259Z,19.48
2022-08-04T22:12:35.032Z,19.45
2022-08-04T22:14:37.628Z,19.41
2022-08-04T22:16:40.005Z,19.37
2022-08-04T22:18:41.801Z,19.39
2022-08-04T22:20:46.476Z,19.37
2022-08-04T22:22:51.377Z,19.35
2022-08-04T22:24:53.562Z,19.33
2022-08-04T22:26:55.089Z,19.32
2022-08-04T22:28:58.027Z,19.34
2022-08-04T22:30:59.699Z,19.36
2022-08-04T22:33:22.803Z,19.29
2022-08-04T22:35:42.965Z,19.25
2022-08-04T22:38:05.509Z,19.18
2022-08-04T22:40:09.335Z,19.21
2022-08-04T22:42:13.503Z,19.25
2022-08-04T22:44:16.041Z,19.25
2022-08-04T22:46:23.585Z,19.26
2022-08-04T22:48:27.187Z,19.26
2022-08-04T22:50:29.069Z,19.27
2022-08-04T22:52:32.166Z,19.26
2022-08-04T22:54:33.789Z,19.18
2022-08-04T22:56:38.145Z,19.14
2022-08-04T22:58:45.357Z,19.08
2022-08-04T23:00:53.091Z,19.06
2022-08-04T23:02:59.812Z,19.08
2022-08-04T23:05:01.591Z,19.12
2022-08-04T23:07:09.176Z,19.17
2022-08-04T23:09:15.922Z,19.20
2022-08-04T23:11:18.000Z,19.22
2022-08-04T23:13:19.842Z,19.16
2022-08-04T23:15:21.411Z,19.13
2022-08-04T23:17:24.415Z,19.11
2022-08-04T23:19:29.961Z,19.14
2022-08-04T23:21:41.127Z,19.16
2022-08-04T23:24:01.003Z,19.17
2022-08-04T23:26:12.032Z,19.12
2022-08-04T23:28:13.537Z,19.06
2022-08-04T23:30:15.328Z,19.03
2022-08-04T23:32:20.371Z,19.03
2022-08-04T23:34:22.077Z,19.03
2022-08-04T23:36:29.873Z,19.01
2022-08-04T23:38:33.004Z,18.97
2022-08-04T23:40:50.454Z,18.90
2022-08-04T23:42:52.469Z,18.85
2022-08-04T23:44:54.777Z,18.80
2022-08-04T23:47:04.398Z,18.80
2022-08-04T23:49:08.648Z,18.77
2022-08-04T23:51:14.287Z,18.79
2022-08-04T23:53:18.764Z,18.84
2022-08-04T23:55:24.483Z,18.89
2022-08-04T23:58:05.279Z,18.92
2022-08-04T23:59:55.179Z,18.94
